Time;durP1;ratioP1;P1;durP2;ratioP2;P2;SDS_P1;SDS_P2;PMS_P1;PMS_P2;Temp;Humidity;BMP_temperature;BMP_pressure;BME280_temperature;BME280_humidity;BME280_pressure;Samples;Min_cycle;Max_cycle;Signal;HPM_P1;HPM_P2
2022/07/31 00:01:28;;;;;;;9.38;9.07;;;16.00;99.90;;;;;;5149723;27;20735;-82
2022/07/31 00:03:57;;;;;;;9.45;9.15;;;15.90;99.90;;;;;;5149882;27;20293;-83
2022/07/31 00:06:25;;;;;;;9.50;9.20;;;16.00;99.90;;;;;;5129843;27;20220;-83
2022/07/31 00:08:53;;;;;;;9.30;9.00;;;15.90;99.90;;;;;;5129154;28;20290;-83
2022/07/31 00:11:23;;;;;;;9.25;8.95;;;15.90;99.90;;;;;;5129363;28;20236;-83
2022/07/31 00:13:52;;;;;;;9.40;9.10;;;15.80;99.90;;;;;;5129698;28;20229;-83
2022/07/31 00:16:23;;;;;;;9.40;9.10;;;15.80;99.90;;;;;;5128387;28;20225;-83
2022/07/31 00:18:54;;;;;;;9.20;8.90;;;15.80;99.90;;;;;;5128897;28;20267;-82
2022/07/31 00:21:23;;;;;;;9.15;8.85;;;15.70;99.90;;;;;;5129754;28;20264;-82
2022/07/31 00:23:50;;;;;;;9.00;8.70;;;15.70;99.90;;;;;;5129035;28;20240;-82
2022/07/31 00:26:19;;;;;;;8.65;8.45;;;15.60;99.90;;;;;;5128559;28;20252;-82
2022/07/31 00:28:49;;;;;;;8.95;8.68;;;15.60;99.90;;;;;;5129303;28;20252;-82
2022/07/31 00:31:18;;;;;;;9.10;8.80;;;15.60;99.90;;;;;;5128435;28;20229;-82
2022/07/31 00:33:49;;;;;;;9.10;8.80;;;15.60;99.90;;;;;;5128710;27;20292;-82
2022/07/31 00:36:20;;;;;;;9.00;8.70;;;15.60;99.90;;;;;;5127565;28;20241;-82
2022/07/31 00:38:47;;;;;;;9.00;8.70;;;15.50;99.90;;;;;;5126454;28;20244;-82
2022/07/31 00:41:17;;;;;;;9.10;8.80;;;15.50;99.90;;;;;;5126932;28;20272;-82
2022/07/31 00:43:46;;;;;;;9.05;8.75;;;15.50;99.90;;;;;;5126792;28;20252;-82
2022/07/31 00:46:16;;;;;;;9.10;8.80;;;15.40;99.90;;;;;;5125932;28;20235;-82
2022/07/31 00:48:45;;;;;;;9.10;8.80;;;15.40;99.90;;;;;;5127483;28;20225;-83
2022/07/31 00:51:14;;;;;;;9.20;8.90;;;15.30;99.90;;;;;;5126991;28;20237;-82
2022/07/31 00:54:01;;;;;;;9.10;8.80;;;15.30;99.90;;;;;;5127895;28;20233;-83
2022/07/31 00:56:30;;;;;;;9.02;8.73;;;15.30;99.90;;;;;;5127179;27;20220;-82
2022/07/31 00:58:59;;;;;;;8.68;8.48;;;15.20;99.90;;;;;;5126739;28;20290;-82
2022/07/31 01:01:29;;;;;;;9.00;8.70;;;15.20;99.90;;;;;;5128311;28;20256;-83
2022/07/31 01:03:58;;;;;;;8.80;8.60;;;15.20;99.90;;;;;;5127229;28;20247;-82
2022/07/31 01:06:28;;;;;;;8.85;8.63;;;15.20;99.90;;;;;;5128152;27;20232;-82
2022/07/31 01:08:59;;;;;;;9.10;8.80;;;15.20;99.90;;;;;;5134439;27;20217;-82
2022/07/31 01:11:39;;;;;;;9.10;8.80;;;15.10;99.90;;;;;;5139551;27;20217;-82
2022/07/31 01:14:14;;;;;;;9.00;8.70;;;15.10;99.90;;;;;;5139986;27;20292;-81
2022/07/31 01:16:45;;;;;;;8.80;8.60;;;15.00;99.90;;;;;;5139298;27;20224;-82
2022/07/31 01:19:32;;;;;;;9.02;8.73;;;15.00;99.90;;;;;;5135128;28;20217;-82
2022/07/31 01:22:28;;;;;;;8.80;8.60;;;15.00;99.90;;;;;;5133361;27;20232;-82
2022/07/31 01:25:09;;;;;;;9.20;8.90;;;14.90;99.90;;;;;;5131251;28;20246;-82
2022/07/31 01:28:02;;;;;;;9.13;8.82;;;14.90;99.90;;;;;;5129578;28;20314;-82
2022/07/31 01:30:40;;;;;;;9.10;8.80;;;14.80;99.90;;;;;;5128437;28;20233;-82
2022/07/31 01:33:20;;;;;;;9.10;8.80;;;14.80;99.90;;;;;;5127208;28;20229;-82
2022/07/31 01:36:08;;;;;;;9.00;8.70;;;14.70;99.90;;;;;;5127700;27;20224;-81
2022/07/31 01:38:43;;;;;;;9.18;8.88;;;14.60;99.90;;;;;;5139056;28;21174;-81
2022/07/31 01:41:14;;;;;;;8.98;8.68;;;14.60;99.90;;;;;;5135203;28;20272;-82
2022/07/31 01:43:44;;;;;;;9.13;8.82;;;14.60;99.90;;;;;;5132118;28;20327;-82
2022/07/31 01:46:23;;;;;;;9.07;8.77;;;14.60;99.90;;;;;;5129180;28;20229;-82
2022/07/31 01:48:52;;;;;;;9.00;8.70;;;14.60;99.90;;;;;;5128434;28;20232;-81
2022/07/31 01:51:22;;;;;;;8.80;8.60;;;14.60;99.90;;;;;;5131439;28;20326;-81
2022/07/31 01:53:51;;;;;;;9.13;8.82;;;14.70;99.90;;;;;;5138956;28;20229;-80
2022/07/31 01:56:19;;;;;;;9.15;8.85;;;14.70;99.90;;;;;;5137062;28;20248;-82
2022/07/31 01:58:48;;;;;;;9.20;8.90;;;14.70;99.90;;;;;;5135274;28;20249;-82
2022/07/31 02:01:28;;;;;;;8.90;8.60;;;14.60;99.90;;;;;;5132959;28;20225;-82
2022/07/31 02:03:57;;;;;;;9.07;8.77;;;14.60;99.90;;;;;;5130741;28;20267;-81
2022/07/31 02:06:26;;;;;;;9.23;8.93;;;14.60;99.90;;;;;;5130834;28;20286;-81
2022/07/31 02:08:55;;;;;;;9.00;8.70;;;14.60;99.90;;;;;;5130409;27;20244;-81
2022/07/31 02:11:24;;;;;;;8.90;8.70;;;14.60;99.90;;;;;;5131822;28;20245;-82
2022/07/31 02:13:53;;;;;;;9.00;8.70;;;14.60;99.90;;;;;;5131532;27;20225;-81
2022/07/31 02:16:32;;;;;;;8.80;8.60;;;14.60;99.90;;;;;;5131110;28;20229;-81
2022/07/31 02:19:01;;;;;;;9.18;8.88;;;14.60;99.90;;;;;;5130450;28;20240;-81
2022/07/31 02:21:31;;;;;;;9.10;8.80;;;14.60;99.90;;;;;;5131526;28;20303;-82
2022/07/31 02:24:00;;;;;;;9.10;8.80;;;14.50;99.90;;;;;;5142263;27;20229;-81
2022/07/31 02:26:31;;;;;;;8.77;8.57;;;14.50;99.90;;;;;;5144027;27;20205;-81
2022/07/31 02:29:00;;;;;;;8.85;8.57;;;14.50;99.90;;;;;;5143967;27;20273;-82
2022/07/31 02:31:37;;;;;;;9.00;8.70;;;14.50;99.90;;;;;;5143188;27;20208;-82
2022/07/31 02:34:07;;;;;;;8.82;8.60;;;14.50;99.90;;;;;;5138247;27;20239;-82
2022/07/31 02:36:36;;;;;;;9.10;8.80;;;14.50;99.90;;;;;;5129762;28;20232;-82
2022/07/31 02:39:06;;;;;;;8.70;8.50;;;14.50;99.90;;;;;;5128933;27;20228;-82
2022/07/31 02:41:35;;;;;;;8.70;8.50;;;14.50;99.90;;;;;;5127391;28;20229;-82
2022/07/31 02:44:04;;;;;;;8.80;8.60;;;14.50;99.90;;;;;;5128823;27;20319;-82
2022/07/31 02:46:43;;;;;;;8.88;8.65;;;14.50;99.90;;;;;;5129195;28;20263;-81
2022/07/31 02:49:12;;;;;;;8.77;8.57;;;14.50;99.90;;;;;;5129155;27;20234;-81
2022/07/31 02:51:42;;;;;;;9.07;8.77;;;14.50;99.90;;;;;;5129298;28;20221;-82
2022/07/31 02:54:11;;;;;;;8.93;8.63;;;14.50;99.90;;;;;;5129372;28;20286;-82
2022/07/31 02:56:42;;;;;;;8.80;8.60;;;14.50;99.90;;;;;;5128383;28;20259;-82
2022/07/31 02:59:10;;;;;;;9.05;8.75;;;14.40;99.90;;;;;;5128898;28;20234;-82
2022/07/31 03:01:48;;;;;;;9.00;8.70;;;14.50;99.90;;;;;;5128421;27;20228;-82
2022/07/31 03:04:17;;;;;;;9.05;8.75;;;14.50;99.90;;;;;;5130200;28;20284;-82
2022/07/31 03:06:47;;;;;;;9.00;8.70;;;14.40;99.90;;;;;;5130699;28;20217;-82
2022/07/31 03:09:16;;;;;;;9.02;8.73;;;14.40;99.90;;;;;;5130513;28;20216;-82
2022/07/31 03:11:45;;;;;;;8.98;8.68;;;14.40;99.90;;;;;;5131053;28;20231;-82
2022/07/31 03:14:15;;;;;;;8.90;8.60;;;14.40;99.90;;;;;;5131012;28;20259;-82
2022/07/31 03:19:43;;;;;;;9.07;8.77;;;14.50;99.90;;;;;;5130182;28;20255;-83
2022/07/31 03:22:11;;;;;;;8.73;8.52;;;14.50;99.90;;;;;;5130302;28;20232;-81
2022/07/31 03:24:41;;;;;;;9.30;9.00;;;14.40;99.90;;;;;;5130134;28;20252;-82
2022/07/31 03:27:10;;;;;;;9.30;9.00;;;14.50;99.90;;;;;;5129344;28;20232;-81
2022/07/31 03:29:40;;;;;;;9.40;9.10;;;14.50;99.90;;;;;;5129517;28;20251;-82
2022/07/31 03:32:12;;;;;;;9.20;8.90;;;14.40;99.90;;;;;;5129035;28;20221;-82
2022/07/31 03:34:43;;;;;;;9.30;9.00;;;14.40;99.90;;;;;;5129509;27;20244;-81
2022/07/31 03:40:13;;;;;;;9.27;8.98;;;14.30;99.90;;;;;;5119542;27;20324;-81
2022/07/31 03:42:43;;;;;;;9.20;8.90;;;14.30;99.90;;;;;;5129635;28;20284;-81
2022/07/31 03:45:12;;;;;;;9.40;9.10;;;14.30;99.90;;;;;;5129701;28;20241;-81
2022/07/31 03:47:50;;;;;;;9.40;9.10;;;14.30;99.90;;;;;;5129166;28;20243;-82
2022/07/31 03:50:19;;;;;;;9.50;9.20;;;14.20;99.90;;;;;;5131534;28;20220;-82
2022/07/31 03:52:49;;;;;;;9.50;9.20;;;14.20;99.90;;;;;;5140467;27;20216;-82
2022/07/31 03:55:18;;;;;;;9.50;9.20;;;14.10;99.90;;;;;;5139339;27;20243;-83
2022/07/31 03:57:48;;;;;;;9.37;9.07;;;14.10;99.90;;;;;;5137702;28;20232;-82
2022/07/31 04:00:19;;;;;;;9.20;8.90;;;14.00;99.90;;;;;;5133971;28;20240;-82
2022/07/31 04:02:49;;;;;;;9.37;9.07;;;14.00;99.90;;;;;;5132344;28;20221;-82
2022/07/31 04:05:17;;;;;;;9.30;9.00;;;13.90;99.90;;;;;;5130918;28;20262;-81
2022/07/31 04:07:45;;;;;;;9.30;9.00;;;13.90;99.90;;;;;;5130194;27;20237;-81
2022/07/31 04:10:15;;;;;;;9.40;9.10;;;13.90;99.90;;;;;;5129927;28;20535;-82
2022/07/31 04:12:44;;;;;;;9.20;8.90;;;13.90;99.90;;;;;;5131996;27;20225;-81
2022/07/31 04:15:14;;;;;;;9.10;8.80;;;13.90;99.90;;;;;;5138035;28;20232;-82
2022/07/31 04:17:43;;;;;;;9.00;8.70;;;14.00;99.90;;;;;;5139453;28;20260;-81
2022/07/31 04:20:15;;;;;;;9.10;8.80;;;14.00;99.90;;;;;;5138754;28;20235;-81
2022/07/31 04:22:43;;;;;;;9.02;8.73;;;14.10;99.90;;;;;;5140186;27;20224;-81
2022/07/31 04:25:12;;;;;;;8.90;8.67;;;14.10;99.90;;;;;;5139537;28;20245;-81
2022/07/31 04:27:41;;;;;;;9.10;8.80;;;14.20;99.90;;;;;;5139794;27;20248;-82
2022/07/31 04:30:10;;;;;;;9.10;8.80;;;14.20;99.90;;;;;;5136395;28;20251;-81
2022/07/31 04:32:40;;;;;;;9.13;8.83;;;14.10;99.90;;;;;;5135798;28;20228;-81
2022/07/31 04:35:09;;;;;;;9.00;8.70;;;14.20;99.90;;;;;;5134248;28;20292;-81
2022/07/31 04:37:42;;;;;;;8.88;8.63;;;14.20;99.90;;;;;;5133025;28;20253;-81
2022/07/31 04:40:11;;;;;;;8.68;8.48;;;14.30;99.90;;;;;;5131134;28;20229;-81
2022/07/31 04:42:39;;;;;;;9.03;8.73;;;14.40;99.90;;;;;;5131412;28;20232;-82
2022/07/31 04:45:11;;;;;;;8.77;8.57;;;14.50;99.90;;;;;;5130046;28;20237;-81
2022/07/31 04:47:38;;;;;;;9.13;8.83;;;14.50;99.90;;;;;;5130179;28;20236;-82
2022/07/31 04:50:08;;;;;;;9.00;8.70;;;14.60;99.90;;;;;;5129755;28;20247;-79
2022/07/31 04:52:37;;;;;;;9.10;8.80;;;14.70;99.90;;;;;;5129604;28;20229;-82
2022/07/31 04:55:06;;;;;;;9.10;8.80;;;14.80;99.90;;;;;;5129836;28;20292;-81
2022/07/31 04:57:34;;;;;;;9.10;8.80;;;14.90;99.90;;;;;;5129648;28;20252;-81
2022/07/31 05:00:03;;;;;;;9.10;8.80;;;15.00;99.90;;;;;;5130045;28;20228;-81
2022/07/31 05:02:33;;;;;;;9.23;8.93;;;15.00;99.90;;;;;;5130044;28;20245;-81
2022/07/31 05:05:02;;;;;;;9.10;8.80;;;15.10;99.90;;;;;;5131004;28;20237;-81
2022/07/31 05:07:30;;;;;;;9.40;9.10;;;15.20;99.90;;;;;;5157065;22;20232;-77
2022/07/31 05:09:59;;;;;;;9.40;9.10;;;15.30;99.90;;;;;;5128758;28;20323;-76
2022/07/31 05:12:26;;;;;;;9.30;9.00;;;15.40;99.90;;;;;;5125647;27;20235;-77
2022/07/31 05:14:54;;;;;;;9.60;9.30;;;15.60;99.90;;;;;;5122157;27;20283;-77
2022/07/31 05:17:22;;;;;;;9.43;9.13;;;15.60;99.90;;;;;;5118963;27;20236;-76
2022/07/31 05:19:49;;;;;;;9.32;9.02;;;15.70;99.90;;;;;;5118322;28;20228;-78
2022/07/31 05:22:21;;;;;;;9.32;9.02;;;15.80;99.90;;;;;;5120335;28;20229;-78
2022/07/31 05:24:51;;;;;;;9.30;9.00;;;15.90;99.90;;;;;;5122226;28;20229;-80
2022/07/31 05:27:23;;;;;;;9.35;9.05;;;16.00;99.90;;;;;;5122237;28;20228;-79
2022/07/31 05:29:50;;;;;;;9.95;9.65;;;16.00;99.90;;;;;;5121427;28;20501;-79
2022/07/31 05:32:19;;;;;;;9.73;9.43;;;16.10;99.90;;;;;;5122262;28;20221;-79
2022/07/31 05:34:49;;;;;;;9.60;9.30;;;16.20;99.90;;;;;;5123210;28;20296;-80
2022/07/31 05:37:18;;;;;;;9.50;9.20;;;16.30;99.90;;;;;;5122813;28;20308;-80
2022/07/31 05:39:48;;;;;;;9.48;9.18;;;16.30;99.90;;;;;;5122959;28;20225;-80
2022/07/31 05:42:17;;;;;;;9.50;9.20;;;16.40;99.90;;;;;;5122721;28;20232;-80
2022/07/31 05:47:33;;;;;;;8.90;8.68;;;16.50;99.90;;;;;;5120510;28;20228;-79
2022/07/31 05:50:04;;;;;;;9.10;8.80;;;16.60;99.90;;;;;;5123299;28;20235;-80
2022/07/31 05:52:32;;;;;;;9.48;9.18;;;16.70;99.90;;;;;;5129805;28;20217;-80
2022/07/31 05:55:02;;;;;;;9.25;8.95;;;16.80;99.90;;;;;;5125978;28;20232;-80
2022/07/31 05:57:32;;;;;;;9.35;9.05;;;16.90;99.90;;;;;;5124845;28;20311;-80
2022/07/31 06:00:10;;;;;;;9.05;8.75;;;17.00;99.90;;;;;;5123213;28;20284;-80
2022/07/31 06:02:40;;;;;;;9.30;9.00;;;17.20;99.90;;;;;;5121481;28;20219;-79
2022/07/31 06:05:08;;;;;;;9.18;8.88;;;17.30;99.90;;;;;;5112262;28;20244;-79
2022/07/31 06:07:38;;;;;;;9.20;8.90;;;17.40;99.90;;;;;;5119953;28;20240;-79
2022/07/31 06:10:08;;;;;;;9.20;8.90;;;17.50;99.90;;;;;;5120758;28;20237;-79
2022/07/31 06:12:37;;;;;;;9.50;9.20;;;17.80;99.90;;;;;;5122238;28;20240;-79
2022/07/31 06:15:17;;;;;;;9.50;9.20;;;17.90;99.90;;;;;;5121200;28;20332;-80
2022/07/31 06:17:45;;;;;;;9.32;9.02;;;18.00;99.90;;;;;;5120957;28;20252;-79
2022/07/31 06:20:14;;;;;;;9.50;9.20;;;18.10;99.90;;;;;;5126406;28;20245;-79
2022/07/31 06:22:44;;;;;;;9.60;9.30;;;18.20;99.90;;;;;;5124759;28;20276;-80
2022/07/31 06:25:13;;;;;;;9.60;9.30;;;18.20;99.90;;;;;;5121881;28;20236;-79
2022/07/31 06:27:41;;;;;;;9.60;9.30;;;18.30;99.90;;;;;;5120998;28;20315;-79
2022/07/31 06:30:29;;;;;;;9.50;9.20;;;18.40;99.90;;;;;;5122119;28;20233;-79
2022/07/31 06:32:59;;;;;;;9.50;9.20;;;18.50;99.90;;;;;;5128399;28;20224;-79
2022/07/31 06:35:28;;;;;;;9.70;9.40;;;18.60;99.90;;;;;;5131641;28;20217;-78
2022/07/31 06:37:58;;;;;;;9.50;9.20;;;18.60;99.90;;;;;;5131831;28;20308;-79
2022/07/31 06:40:27;;;;;;;9.55;9.25;;;18.70;99.90;;;;;;5109954;28;20258;-79
2022/07/31 06:42:57;;;;;;;9.48;9.18;;;18.80;99.90;;;;;;5120056;28;20308;-79
2022/07/31 06:45:31;;;;;;;9.70;9.40;;;18.90;99.90;;;;;;5106088;28;20243;-79
2022/07/31 06:48:05;;;;;;;9.63;9.32;;;19.00;99.90;;;;;;5110120;28;20229;-78
2022/07/31 06:50:34;;;;;;;9.77;9.48;;;19.20;99.90;;;;;;5119769;28;20225;-82
2022/07/31 06:53:04;;;;;;;9.80;9.50;;;19.30;99.90;;;;;;5118876;28;20236;-78
2022/07/31 06:55:33;;;;;;;9.90;9.60;;;19.40;99.90;;;;;;5119810;28;20306;-80
2022/07/31 06:58:02;;;;;;;9.80;9.50;;;19.60;99.90;;;;;;5120598;28;20280;-81
2022/07/31 07:00:34;;;;;;;9.80;9.50;;;19.70;99.90;;;;;;5122672;28;20319;-80
2022/07/31 07:03:01;;;;;;;9.80;9.50;;;19.70;99.90;;;;;;5126467;28;20268;-79
2022/07/31 07:05:31;;;;;;;10.10;9.80;;;19.80;99.90;;;;;;5132498;28;20244;-83
2022/07/31 07:08:01;;;;;;;10.00;9.70;;;19.90;99.90;;;;;;5128166;27;20257;-79
2022/07/31 07:10:29;;;;;;;10.10;9.80;;;20.00;99.90;;;;;;5121813;28;20268;-81
2022/07/31 07:12:58;;;;;;;10.30;10.00;;;20.20;99.90;;;;;;5122394;28;20283;-82
2022/07/31 07:15:28;;;;;;;9.98;9.68;;;20.40;99.90;;;;;;5121915;28;20233;-81
2022/07/31 07:18:08;;;;;;;10.05;9.75;;;20.50;99.90;;;;;;5122074;28;20297;-81
2022/07/31 07:20:37;;;;;;;10.02;9.73;;;20.60;99.90;;;;;;5121673;28;20319;-82
2022/07/31 07:23:07;;;;;;;10.10;9.80;;;20.70;99.90;;;;;;5122635;28;20223;-84
2022/07/31 07:25:36;;;;;;;9.90;9.60;;;20.70;99.90;;;;;;5104891;28;20359;-81
2022/07/31 07:28:04;;;;;;;9.90;9.60;;;20.80;99.90;;;;;;5102735;28;20237;-81
2022/07/31 07:30:36;;;;;;;10.00;9.70;;;20.90;99.90;;;;;;5103306;28;20256;-81
2022/07/31 07:33:07;;;;;;;10.30;10.00;;;21.00;99.90;;;;;;5100353;28;20269;-85
2022/07/31 07:35:36;;;;;;;10.15;9.85;;;21.00;99.90;;;;;;5093278;28;20262;-84
2022/07/31 07:38:04;;;;;;;10.27;9.98;;;21.10;99.90;;;;;;5123288;28;20301;-85
2022/07/31 07:40:34;;;;;;;10.00;9.70;;;21.20;99.90;;;;;;5123049;28;20276;-85
2022/07/31 07:43:03;;;;;;;10.27;9.98;;;21.20;99.90;;;;;;5121869;28;20247;-83
2022/07/31 07:45:33;;;;;;;10.50;10.20;;;21.30;99.90;;;;;;5111296;28;20296;-84
2022/07/31 07:48:02;;;;;;;10.60;10.30;;;21.40;99.90;;;;;;5115842;28;20291;-84
2022/07/31 07:53:18;;;;;;;10.48;10.18;;;21.40;99.90;;;;;;5120693;28;20254;-81
2022/07/31 07:55:48;;;;;;;10.52;10.23;;;21.40;99.90;;;;;;5122802;28;20272;-83
2022/07/31 07:58:18;;;;;;;10.27;9.98;;;21.40;99.90;;;;;;5121872;28;20324;-83
2022/07/31 08:00:46;;;;;;;10.40;10.10;;;21.60;99.90;;;;;;5121468;28;20783;-83
2022/07/31 08:03:16;;;;;;;10.15;9.85;;;21.70;99.90;;;;;;5121313;28;20228;-83
2022/07/31 08:05:57;;;;;;;10.32;10.02;;;21.80;99.90;;;;;;5121767;28;20251;-83
2022/07/31 08:08:25;;;;;;;10.07;9.77;;;22.00;99.90;;;;;;5104580;28;20243;-82
2022/07/31 08:10:53;;;;;;;10.27;9.98;;;22.20;99.90;;;;;;5123060;28;20244;-83
2022/07/31 08:13:22;;;;;;;10.48;10.18;;;22.30;99.90;;;;;;5122723;28;21003;-84
2022/07/31 08:15:52;;;;;;;10.50;10.20;;;22.40;99.90;;;;;;5123225;28;20224;-84
2022/07/31 08:18:21;;;;;;;10.57;10.27;;;22.70;99.90;;;;;;5121817;28;20239;-84
2022/07/31 08:21:01;;;;;;;10.80;10.50;;;23.00;99.90;;;;;;5106995;28;20316;-83
2022/07/31 08:23:28;;;;;;;10.77;10.48;;;23.30;99.90;;;;;;5099726;28;20225;-84
2022/07/31 08:25:59;;;;;;;10.80;10.50;;;23.60;99.90;;;;;;5108811;28;20271;-85
2022/07/31 08:28:28;;;;;;;10.80;10.50;;;23.80;99.90;;;;;;5120870;28;20241;-85
2022/07/31 08:30:58;;;;;;;10.68;10.38;;;24.00;99.90;;;;;;5121395;28;20228;-84
2022/07/31 08:33:26;;;;;;;10.70;10.40;;;24.00;99.90;;;;;;5122246;28;20224;-83
2022/07/31 08:35:59;;;;;;;10.77;10.48;;;24.20;99.90;;;;;;5122151;28;20271;-83
2022/07/31 08:38:27;;;;;;;10.73;10.43;;;24.40;99.90;;;;;;5121885;28;20237;-83
2022/07/31 08:40:55;;;;;;;11.00;10.70;;;24.50;99.90;;;;;;5124419;28;20233;-83
2022/07/31 08:43:23;;;;;;;10.80;10.50;;;24.50;99.90;;;;;;5130671;28;20280;-82
2022/07/31 08:45:54;;;;;;;11.10;10.80;;;24.50;99.90;;;;;;5134610;28;20263;-83
2022/07/31 08:48:25;;;;;;;11.05;10.75;;;24.80;99.90;;;;;;5122614;28;20296;-83
2022/07/31 08:50:55;;;;;;;11.00;10.70;;;25.30;99.90;;;;;;5120869;28;20228;-86
2022/07/31 08:53:27;;;;;;;11.13;10.82;;;25.60;99.90;;;;;;5121100;28;20217;-86
2022/07/31 08:55:54;;;;;;;11.00;10.70;;;25.80;99.90;;;;;;5123993;28;20228;-86
2022/07/31 08:58:22;;;;;;;11.10;10.80;;;25.80;99.90;;;;;;5139329;27;20235;-85
2022/07/31 09:00:50;;;;;;;10.90;10.60;;;25.80;99.90;;;;;;5139589;27;20235;-85
2022/07/31 09:03:19;;;;;;;11.15;10.85;;;26.00;99.90;;;;;;5135391;28;20260;-85
2022/07/31 09:05:49;;;;;;;10.80;10.50;;;26.20;99.90;;;;;;5135083;28;20248;-85
2022/07/31 09:08:21;;;;;;;10.88;10.57;;;26.20;99.90;;;;;;5131614;28;20241;-85
2022/07/31 09:10:49;;;;;;;10.98;10.68;;;26.40;99.90;;;;;;5123928;28;20315;-84
2022/07/31 09:13:18;;;;;;;11.07;10.77;;;26.70;99.90;;;;;;5124519;28;20221;-85
2022/07/31 09:15:46;;;;;;;10.88;10.57;;;26.90;99.90;;;;;;5120127;28;20286;-82
2022/07/31 09:18:18;;;;;;;11.07;10.77;;;27.20;99.90;;;;;;5120691;28;20304;-82
2022/07/31 09:20:57;;;;;;;10.90;10.60;;;27.10;99.90;;;;;;5121926;28;20236;-84
2022/07/31 09:23:28;;;;;;;10.73;10.43;;;27.00;99.90;;;;;;5120856;28;20252;-80
2022/07/31 09:25:58;;;;;;;11.07;10.77;;;26.90;99.90;;;;;;5119050;28;20300;-84
2022/07/31 09:28:34;;;;;;;11.00;10.70;;;27.10;99.90;;;;;;5120881;28;20229;-87
2022/07/31 09:31:03;;;;;;;10.95;10.65;;;27.30;99.90;;;;;;5120457;28;20250;-86
2022/07/31 09:33:37;;;;;;;11.10;10.80;;;27.40;99.90;;;;;;5120325;28;20236;-83
2022/07/31 09:36:10;;;;;;;10.98;10.68;;;27.60;99.90;;;;;;5119414;28;20255;-85
2022/07/31 09:38:46;;;;;;;11.18;10.88;;;27.70;99.90;;;;;;5119266;28;20286;-83
2022/07/31 09:41:18;;;;;;;11.32;11.02;;;27.70;99.90;;;;;;5121123;28;20233;-86
2022/07/31 09:46:52;;;;;;;10.90;10.60;;;27.80;99.90;;;;;;5117635;28;20279;-85
2022/07/31 09:49:31;;;;;;;10.93;10.63;;;28.10;99.90;;;;;;5117485;28;21046;-84
2022/07/31 09:52:01;;;;;;;10.93;10.63;;;28.00;99.90;;;;;;5117625;28;20239;-86
2022/07/31 09:58:03;;;;;;;11.15;10.85;;;28.20;99.90;;;;;;5114347;28;20224;-85
2022/07/31 10:00:36;;;;;;;11.00;10.70;;;28.40;99.90;;;;;;5116627;28;20252;-85
2022/07/31 10:06:23;;;;;;;11.30;11.00;;;27.60;99.90;;;;;;5116305;28;20263;-85
2022/07/31 10:09:02;;;;;;;11.20;10.90;;;28.30;99.90;;;;;;5116545;27;20240;-85
2022/07/31 10:11:34;;;;;;;11.40;11.10;;;28.90;99.90;;;;;;5118681;27;20232;-84
2022/07/31 10:14:32;;;;;;;10.90;10.60;;;29.70;99.90;;;;;;5122813;28;20256;-86
2022/07/31 10:17:05;;;;;;;10.70;10.40;;;30.00;99.90;;;;;;5116929;28;20311;-84
2022/07/31 10:19:38;;;;;;;10.82;10.52;;;30.20;99.90;;;;;;5126324;28;20216;-81
2022/07/31 10:22:35;;;;;;;;;;;;;;;;;;;;;
2022/07/31 10:35:28;;;;;;;11.18;10.88;;;30.80;99.90;;;;;;5057581;28;20293;-86
2022/07/31 10:38:17;;;;;;;11.45;11.05;;;30.70;99.90;;;;;;5059006;28;20242;-86
2022/07/31 10:44:26;;;;;;;11.50;11.10;;;29.80;99.90;;;;;;5136800;28;20221;-85
2022/07/31 10:47:49;;;;;;;11.30;11.00;;;30.10;99.90;;;;;;5058670;28;20262;-88
2022/07/31 10:50:26;;;;;;;11.05;10.75;;;29.00;99.90;;;;;;4969187;28;20225;-86
2022/07/31 10:53:11;;;;;;;11.60;11.20;;;28.60;99.90;;;;;;5100684;28;21217;-88
2022/07/31 10:55:39;;;;;;;11.27;10.98;;;28.00;99.90;;;;;;5099828;28;20225;-88
2022/07/31 10:58:18;;;;;;;11.07;10.77;;;27.60;99.90;;;;;;5089734;28;20252;-88
2022/07/31 11:00:46;;;;;;;11.10;10.80;;;27.20;99.90;;;;;;5083181;28;20307;-88
2022/07/31 11:03:19;;;;;;;11.00;10.70;;;27.30;99.90;;;;;;5081496;28;20238;-88
2022/07/31 11:06:07;;;;;;;11.20;10.90;;;27.30;99.90;;;;;;5080134;28;20237;-88
2022/07/31 11:08:46;;;;;;;11.10;10.80;;;27.20;99.90;;;;;;5079703;28;20234;-87
2022/07/31 11:11:15;;;;;;;11.02;10.73;;;27.30;99.90;;;;;;5081876;28;20286;-88
2022/07/31 11:13:51;;;;;;;11.13;10.82;;;27.20;99.90;;;;;;5092566;28;20279;-88
2022/07/31 11:16:20;;;;;;;11.50;11.10;;;27.50;99.90;;;;;;5088624;28;20228;-87
2022/07/31 11:18:58;;;;;;;11.20;10.90;;;27.80;99.90;;;;;;5119555;28;20300;-88
2022/07/31 11:21:41;;;;;;;11.20;10.90;;;28.30;99.90;;;;;;5120699;27;20228;-88
2022/07/31 11:24:23;;;;;;;11.13;10.82;;;28.70;99.90;;;;;;5081314;28;20230;-89
2022/07/31 11:26:52;;;;;;;11.25;10.95;;;28.90;99.90;;;;;;5095797;28;20229;-87
2022/07/31 11:29:35;;;;;;;11.07;10.77;;;28.90;99.90;;;;;;5119473;28;20237;-88
2022/07/31 11:32:17;;;;;;;10.95;10.65;;;28.60;99.90;;;;;;5119002;28;20246;-87
2022/07/31 11:34:48;;;;;;;11.00;10.70;;;28.60;99.90;;;;;;5078438;28;20226;-87
2022/07/31 11:37:21;;;;;;;11.10;10.80;;;28.50;99.90;;;;;;5078890;28;20234;-88
2022/07/31 11:39:51;;;;;;;11.00;10.70;;;28.40;99.90;;;;;;5079497;28;20234;-89
2022/07/31 11:42:20;;;;;;;11.07;10.77;;;28.20;99.90;;;;;;5079248;28;20257;-88
2022/07/31 11:44:48;;;;;;;11.35;11.00;;;28.00;99.90;;;;;;5079254;28;20233;-89
2022/07/31 11:47:18;;;;;;;11.00;10.70;;;28.20;99.90;;;;;;5079253;28;20237;-87
2022/07/31 11:49:47;;;;;;;11.13;10.82;;;28.80;99.90;;;;;;5091821;28;20232;-88
2022/07/31 11:52:14;;;;;;;11.05;10.75;;;29.60;99.90;;;;;;5128049;28;20208;-87
2022/07/31 11:54:44;;;;;;;10.90;10.60;;;29.60;99.90;;;;;;5120465;28;20290;-86
2022/07/31 11:57:14;;;;;;;11.70;11.30;;;29.60;99.90;;;;;;5130701;28;20422;-85
2022/07/31 11:59:53;;;;;;;11.25;10.95;;;29.70;99.90;;;;;;5127289;28;20228;-87
2022/07/31 12:02:24;;;;;;;11.30;11.00;;;30.10;99.90;;;;;;5128863;28;20220;-85
2022/07/31 12:04:53;;;;;;;11.15;10.85;;;30.80;99.90;;;;;;5133829;28;20231;-87
2022/07/31 12:07:22;;;;;;;11.00;10.70;;;31.50;99.90;;;;;;5121543;28;20240;-85
2022/07/31 12:09:55;;;;;;;11.23;10.93;;;31.80;99.90;;;;;;5120793;28;20213;-89
2022/07/31 12:12:24;;;;;;;11.10;10.80;;;32.00;99.90;;;;;;5119876;28;20303;-88
2022/07/31 12:18:42;;;;;;;11.15;10.85;;;31.20;99.90;;;;;;5107326;28;20220;-86
2022/07/31 12:24:14;;;;;;;11.25;10.95;;;31.70;99.90;;;;;;5117281;28;20225;-86
2022/07/31 12:27:01;;;;;;;11.05;10.75;;;32.30;99.90;;;;;;5102059;28;20292;-89
2022/07/31 12:29:34;;;;;;;10.80;10.50;;;32.30;99.90;;;;;;5103957;28;20225;-88
2022/07/31 12:32:11;;;;;;;10.73;10.43;;;32.10;99.90;;;;;;5101982;28;20221;-87
2022/07/31 12:34:41;;;;;;;10.80;10.50;;;31.50;99.90;;;;;;5089633;28;20233;-88
2022/07/31 12:37:18;;;;;;;10.70;10.40;;;30.60;99.90;;;;;;5082835;28;20289;-87
2022/07/31 12:39:56;;;;;;;10.70;10.40;;;29.90;99.90;;;;;;5086946;28;20230;-89
2022/07/31 12:42:35;;;;;;;10.90;10.60;;;30.10;99.90;;;;;;5097808;28;20263;-86
2022/07/31 12:45:05;;;;;;;10.70;10.40;;;30.30;99.90;;;;;;5099663;28;20224;-88
2022/07/31 12:47:34;;;;;;;10.70;10.40;;;30.30;99.90;;;;;;5099750;28;20225;-88
2022/07/31 12:50:02;;;;;;;10.63;10.32;;;30.10;99.90;;;;;;5079845;28;20279;-86
2022/07/31 12:52:33;;;;;;;11.00;10.70;;;29.90;99.90;;;;;;5080688;28;20328;-86
2022/07/31 12:55:03;;;;;;;11.00;10.70;;;29.80;99.90;;;;;;5079069;28;20276;-87
2022/07/31 12:57:33;;;;;;;11.10;10.80;;;30.30;99.90;;;;;;5079353;28;20242;-87
2022/07/31 13:00:01;;;;;;;10.90;10.60;;;30.70;99.90;;;;;;5079478;28;20230;-88
2022/07/31 13:02:29;;;;;;;10.80;10.50;;;31.00;99.90;;;;;;5079555;28;20230;-86
2022/07/31 13:04:58;;;;;;;10.93;10.63;;;30.90;99.90;;;;;;5080008;28;20238;-86
2022/07/31 13:07:28;;;;;;;11.15;10.85;;;30.60;99.90;;;;;;5082538;28;20236;-87
2022/07/31 13:09:57;;;;;;;10.70;10.40;;;30.70;99.90;;;;;;5097360;28;20252;-87
2022/07/31 13:12:27;;;;;;;10.65;10.35;;;30.70;99.90;;;;;;5085354;28;20314;-87
2022/07/31 13:15:05;;;;;;;10.80;10.50;;;30.60;99.90;;;;;;5080850;28;20261;-86
2022/07/31 13:17:35;;;;;;;10.88;10.57;;;31.40;99.90;;;;;;5080883;28;20236;-86
2022/07/31 13:20:04;;;;;;;10.90;10.60;;;31.80;99.90;;;;;;5080846;28;20256;-87
2022/07/31 13:22:33;;;;;;;10.70;10.40;;;31.80;99.90;;;;;;5081053;28;20258;-87
2022/07/31 13:25:04;;;;;;;10.65;10.35;;;31.60;99.90;;;;;;5073790;28;20258;-87
2022/07/31 13:27:33;;;;;;;10.70;10.40;;;31.80;99.90;;;;;;5100753;28;20232;-88
2022/07/31 13:32:49;;;;;;;10.68;10.38;;;31.60;99.90;;;;;;5101091;28;20217;-88
2022/07/31 13:35:20;;;;;;;10.80;10.50;;;32.00;99.90;;;;;;5101382;28;20226;-86
2022/07/31 13:37:50;;;;;;;10.65;10.35;;;31.60;99.90;;;;;;5097777;28;20224;-88
2022/07/31 13:41:19;;;;;;;10.77;10.48;;;31.30;99.90;;;;;;5100984;28;20236;-89
2022/07/31 13:43:16;;;;;;;10.63;10.32;;;30.80;99.90;;;;;;5100201;28;20226;-87
2022/07/31 13:45:46;;;;;;;10.70;10.40;;;30.90;99.90;;;;;;5101300;28;21194;-87